Pagrindinis puslapis
METAR-TAF:

METAR-TAF

Oro uostai :

Midland, Teksasas, Jungtinės Amerikos Valstijos

platuma: 31-56-52N, ilguma: 102-12-31W, Aukštis: 875 m

Dabartinis oras

Ataskaita buvo paskelbta 17 minutes, ne 04:53 UTC
Vėjas 13 kt iš Rytų/Pietryčių
Temperatūra 18°C
Drėgmė 64%
Slėgis 1022 hPa
Matomumas: 16.1 km
Giedras dangus

METAR: KMAF 140453Z 12013KT 10SM CLR 18/11 A3018 RMK AO2 SLP192 T01830111

Laikas: 00:10 (05:10 UTC)

Prognozė

Ataskaita buvo paskelbta 5 valandos ir 50 minutes, ne 23:20 UTC
Prognozė galioja nuo 14 metu 00 UTC su 14 metu 24 UTC
Vėjas 11 kt iš Pietryčių
Matomumas: 10 km
Mažai debesys ne aukštis 25000 ft
Nuo 14 metu 1700 UTC
Vėjas 15 kt iš Pietų su gūsio iki 22 kt
Matomumas: 10 km
Išsisklaidę debesys ne aukštis 9000 ft

TAF: KMAF 132320Z 1400/1424 14011KT P6SM FEW250 FM141700 17015G22KT P6SM SCT090

Orai ataskaitas ir orų prognozės (METAR, TAF).

turimą stotys yra geltonos ir raudonos taškus žemėlapyje.

Perkelti pele per norėdami pamatyti stoties vardą.

Tada spustelėkite, norėdami matyti oro stebėjimo ir prognozės.

Norėdami pakeisti žemėlapį: spustelėkite ant žalios mygtukų su juodo kryžiaus žemyn,; žalią mygtuką su brūkšneliu, jei norite nutolinti; arba žalių rodyklių gretimoms žemėlapius.


METAR-TAF: